createdAt,value
2022-12-11T00:02:04.657Z,2.33
2022-12-11T00:04:31.622Z,2.33
2022-12-11T00:06:58.409Z,2.33
2022-12-11T00:09:24.962Z,2.32
2022-12-11T00:11:51.593Z,2.31
2022-12-11T00:14:18.333Z,2.32
2022-12-11T00:16:44.926Z,2.32
2022-12-11T00:19:11.563Z,2.32
2022-12-11T00:21:38.131Z,2.31
2022-12-11T00:24:05.074Z,2.30
2022-12-11T00:26:32.001Z,2.29
2022-12-11T00:28:59.099Z,2.31
2022-12-11T00:31:25.660Z,2.31
2022-12-11T00:33:52.377Z,2.31
2022-12-11T00:36:21.612Z,2.29
2022-12-11T00:38:49.141Z,2.29
2022-12-11T00:41:16.848Z,2.29
2022-12-11T00:43:43.680Z,2.27
2022-12-11T00:46:11.032Z,2.29
2022-12-11T00:48:38.395Z,2.29
2022-12-11T00:51:05.686Z,2.28
2022-12-11T00:53:32.271Z,2.27
2022-12-11T00:55:58.816Z,2.29
2022-12-11T00:58:25.328Z,2.27
2022-12-11T01:00:52.741Z,2.27
2022-12-11T01:03:19.869Z,2.27
2022-12-11T01:05:54.033Z,2.25
2022-12-11T01:08:20.739Z,2.27
2022-12-11T01:10:47.364Z,2.28
2022-12-11T01:13:13.988Z,2.28
2022-12-11T01:15:43.741Z,2.24
2022-12-11T01:18:13.240Z,2.28
2022-12-11T01:20:41.095Z,2.29
2022-12-11T01:23:07.664Z,2.29
2022-12-11T01:25:35.896Z,2.27
2022-12-11T01:28:02.434Z,2.28
2022-12-11T01:30:29.041Z,2.27
2022-12-11T01:32:55.614Z,2.26
2022-12-11T01:35:23.572Z,2.26
2022-12-11T01:37:50.194Z,2.27
2022-12-11T01:40:19.812Z,2.25
2022-12-11T01:42:46.745Z,2.26
2022-12-11T01:45:25.626Z,2.26
2022-12-11T01:48:14.482Z,2.26
2022-12-11T01:51:04.855Z,2.24
2022-12-11T01:53:43.683Z,2.24
2022-12-11T01:56:11.060Z,2.24
2022-12-11T01:58:43.078Z,2.22
2022-12-11T02:01:15.283Z,2.23
2022-12-11T02:03:42.573Z,2.23
2022-12-11T02:06:39.343Z,2.22
2022-12-11T02:09:10.321Z,2.22
2022-12-11T02:11:45.707Z,2.20
2022-12-11T02:14:38.827Z,2.21
2022-12-11T02:17:20.941Z,2.20
2022-12-11T02:20:12.948Z,2.19
2022-12-11T02:23:13.553Z,2.19
2022-12-11T02:26:02.007Z,2.18
2022-12-11T02:28:38.727Z,2.18
2022-12-11T02:31:39.764Z,2.18
2022-12-11T02:34:18.593Z,2.16
2022-12-11T02:36:51.283Z,2.17
2022-12-11T02:39:19.211Z,2.17
2022-12-11T02:41:49.965Z,2.17
2022-12-11T02:44:21.086Z,2.16
2022-12-11T02:46:47.728Z,2.17
2022-12-11T02:49:15.743Z,2.19
2022-12-11T02:51:44.276Z,2.18
2022-12-11T02:54:16.991Z,2.18
2022-12-11T02:56:49.574Z,2.18
2022-12-11T02:59:20.447Z,2.18
2022-12-11T03:01:47.660Z,2.18
2022-12-11T03:04:14.332Z,2.19
2022-12-11T03:06:46.761Z,2.18
2022-12-11T03:09:13.682Z,2.19
2022-12-11T03:11:40.300Z,2.19
2022-12-11T03:14:08.254Z,2.19
2022-12-11T03:16:36.505Z,2.19
2022-12-11T03:19:21.729Z,2.18
2022-12-11T03:22:03.629Z,2.17
2022-12-11T03:24:34.774Z,2.17
2022-12-11T03:27:34.811Z,2.20
2022-12-11T03:30:11.717Z,2.19
2022-12-11T03:32:50.357Z,2.20
2022-12-11T03:35:23.811Z,2.19
2022-12-11T03:37:52.720Z,2.19
2022-12-11T03:40:21.441Z,2.21
2022-12-11T03:42:51.574Z,2.18
2022-12-11T03:45:20.995Z,2.20
2022-12-11T03:47:48.156Z,2.22
2022-12-11T03:50:18.226Z,2.21
2022-12-11T03:52:48.683Z,2.20
2022-12-11T03:55:17.863Z,2.19
2022-12-11T03:57:44.678Z,2.20
2022-12-11T04:00:17.632Z,2.21
2022-12-11T04:02:45.120Z,2.20
2022-12-11T04:05:12.257Z,2.19
2022-12-11T04:07:39.163Z,2.20
2022-12-11T04:10:06.964Z,2.20
2022-12-11T04:12:33.468Z,2.19
2022-12-11T04:15:02.902Z,2.18
2022-12-11T04:17:53.797Z,2.19
2022-12-11T04:20:40.236Z,2.18
2022-12-11T04:23:30.715Z,2.17
2022-12-11T04:26:23.481Z,2.18
2022-12-11T04:28:50.538Z,2.19
2022-12-11T04:31:21.178Z,2.17
2022-12-11T04:33:47.784Z,2.17
2022-12-11T04:36:15.082Z,2.19
2022-12-11T04:38:41.628Z,2.19
2022-12-11T04:41:11.786Z,2.17
2022-12-11T04:43:38.906Z,2.18
2022-12-11T04:46:10.181Z,2.19
2022-12-11T04:48:38.062Z,2.20
2022-12-11T04:51:05.325Z,2.19
2022-12-11T04:53:32.145Z,2.20
2022-12-11T04:55:58.789Z,2.21
2022-12-11T04:58:26.527Z,2.20
2022-12-11T05:00:53.099Z,2.20
2022-12-11T05:03:20.514Z,2.19
2022-12-11T05:05:54.112Z,2.20
2022-12-11T05:08:21.419Z,2.19
2022-12-11T05:11:03.233Z,2.19
2022-12-11T05:13:30.557Z,2.20
2022-12-11T05:15:57.554Z,2.18
2022-12-11T05:18:24.883Z,2.18
2022-12-11T05:21:02.237Z,2.19
2022-12-11T05:23:29.377Z,2.19
2022-12-11T05:25:58.786Z,2.18
2022-12-11T05:28:27.258Z,2.18
2022-12-11T05:31:02.332Z,2.19
2022-12-11T05:33:29.947Z,2.17
2022-12-11T05:35:56.549Z,2.18
2022-12-11T05:38:23.455Z,2.18
2022-12-11T05:41:01.093Z,2.18
2022-12-11T05:43:30.117Z,2.18
2022-12-11T05:46:04.477Z,2.18
2022-12-11T05:48:30.969Z,2.18
2022-12-11T05:50:58.933Z,2.17
2022-12-11T05:53:25.853Z,2.17
2022-12-11T05:55:52.656Z,2.18
2022-12-11T05:58:19.573Z,2.16
2022-12-11T06:00:46.338Z,2.17
2022-12-11T06:03:13.157Z,2.16
2022-12-11T06:05:41.042Z,2.16
2022-12-11T06:08:07.890Z,2.18
2022-12-11T06:10:34.541Z,2.17
2022-12-11T06:13:01.786Z,2.17
2022-12-11T06:15:28.361Z,2.16
2022-12-11T06:17:54.858Z,2.16
2022-12-11T06:20:21.340Z,2.15
2022-12-11T06:22:47.841Z,2.15
2022-12-11T06:25:14.449Z,2.15
2022-12-11T06:27:41.018Z,2.16
2022-12-11T06:30:08.294Z,2.13
2022-12-11T06:32:34.810Z,2.14
2022-12-11T06:35:01.280Z,2.13
2022-12-11T06:37:28.823Z,2.15
2022-12-11T06:39:55.321Z,2.13
2022-12-11T06:42:21.789Z,2.14
2022-12-11T06:44:48.288Z,2.13
2022-12-11T06:47:14.775Z,2.13
2022-12-11T06:49:41.265Z,2.13
2022-12-11T06:52:07.792Z,2.13
2022-12-11T06:54:34.298Z,2.12
2022-12-11T06:57:00.793Z,2.12
2022-12-11T06:59:27.263Z,2.12
2022-12-11T07:01:53.807Z,2.12
2022-12-11T07:04:20.337Z,2.11
2022-12-11T07:06:47.478Z,2.11
2022-12-11T07:09:13.963Z,2.11
2022-12-11T07:11:40.480Z,2.12
2022-12-11T07:14:07.015Z,2.11
2022-12-11T07:16:33.582Z,2.10
2022-12-11T07:19:00.457Z,2.10
2022-12-11T07:21:26.950Z,2.10
2022-12-11T07:23:53.440Z,2.09
2022-12-11T07:26:22.213Z,2.09
2022-12-11T07:28:48.986Z,2.10
2022-12-11T07:31:19.569Z,2.09
2022-12-11T07:33:46.830Z,2.11
2022-12-11T07:36:14.635Z,2.10
2022-12-11T07:38:41.502Z,2.09
2022-12-11T07:41:11.872Z,2.08
2022-12-11T07:43:38.432Z,2.08
2022-12-11T07:46:13.499Z,2.08
2022-12-11T07:48:41.763Z,2.08
2022-12-11T07:51:17.534Z,2.07
2022-12-11T07:53:49.026Z,2.06
2022-12-11T07:56:16.963Z,2.06
2022-12-11T07:58:43.541Z,2.06
2022-12-11T08:01:15.666Z,2.04
2022-12-11T08:03:42.918Z,2.06
2022-12-11T08:06:10.126Z,2.06
2022-12-11T08:08:36.889Z,2.06
2022-12-11T08:11:08.969Z,2.05
2022-12-11T08:13:35.708Z,2.06
2022-12-11T08:16:07.385Z,2.06
2022-12-11T08:18:35.308Z,2.05
2022-12-11T08:21:25.311Z,2.07
2022-12-11T08:23:53.407Z,2.05
2022-12-11T08:26:27.512Z,2.04
2022-12-11T08:28:54.194Z,2.03
2022-12-11T08:31:21.254Z,2.03
2022-12-11T08:33:49.476Z,2.03
2022-12-11T08:36:18.391Z,2.03
2022-12-11T08:38:46.591Z,2.01
2022-12-11T08:41:15.525Z,2.02
2022-12-11T08:43:42.108Z,2.01
2022-12-11T08:46:09.484Z,2.00
2022-12-11T08:48:37.656Z,1.99
2022-12-11T08:51:06.763Z,2.00
2022-12-11T08:53:33.666Z,1.98
2022-12-11T08:56:03.973Z,2.00
2022-12-11T08:58:30.672Z,1.99
2022-12-11T09:00:57.364Z,2.00
2022-12-11T09:03:24.745Z,2.00
2022-12-11T09:05:51.802Z,1.97
2022-12-11T09:08:18.385Z,1.99
2022-12-11T09:10:44.936Z,1.99
2022-12-11T09:13:11.597Z,1.99
2022-12-11T09:15:41.571Z,1.97
2022-12-11T09:18:08.685Z,1.99
2022-12-11T09:20:35.212Z,1.99
2022-12-11T09:23:02.183Z,2.01
2022-12-11T09:25:28.705Z,2.00
2022-12-11T09:27:55.169Z,2.00
2022-12-11T09:30:21.719Z,2.02
2022-12-11T09:32:48.213Z,2.01
2022-12-11T09:35:14.707Z,2.03
2022-12-11T09:37:41.188Z,2.03
2022-12-11T09:40:10.992Z,2.03
2022-12-11T09:42:55.297Z,2.02
2022-12-11T09:45:21.943Z,2.05
2022-12-11T09:47:52.672Z,2.06
2022-12-11T09:50:32.903Z,2.08
2022-12-11T09:53:13.370Z,2.08
2022-12-11T09:55:48.796Z,2.08
2022-12-11T09:58:43.399Z,2.08
2022-12-11T10:01:19.844Z,2.09
2022-12-11T10:04:34.012Z,2.10
2022-12-11T10:07:22.218Z,2.09
2022-12-11T10:10:03.745Z,2.11
2022-12-11T10:12:40.044Z,2.11
2022-12-11T10:15:23.587Z,2.12
2022-12-11T10:17:51.564Z,2.14
2022-12-11T10:20:28.100Z,2.13
2022-12-11T10:22:56.811Z,2.15
2022-12-11T10:25:32.583Z,2.17
2022-12-11T10:28:00.813Z,2.16
2022-12-11T10:30:37.955Z,2.19
2022-12-11T10:33:21.638Z,2.20
2022-12-11T10:35:56.280Z,2.20
2022-12-11T10:38:31.795Z,2.22
2022-12-11T10:41:04.507Z,2.23
2022-12-11T10:43:37.216Z,2.25
2022-12-11T10:46:05.812Z,2.26
2022-12-11T10:48:32.418Z,2.27
2022-12-11T10:51:02.647Z,2.28
2022-12-11T10:53:31.297Z,2.30
2022-12-11T10:56:00.715Z,2.31
2022-12-11T10:58:33.977Z,2.34
2022-12-11T11:01:04.348Z,2.34
2022-12-11T11:03:32.509Z,2.35
2022-12-11T11:06:14.770Z,2.37
2022-12-11T11:08:44.848Z,2.36
2022-12-11T11:11:20.280Z,2.38
2022-12-11T11:13:46.857Z,2.41
2022-12-11T11:16:16.855Z,2.40
2022-12-11T11:18:52.387Z,2.43
2022-12-11T11:21:20.965Z,2.43
2022-12-11T11:23:53.286Z,2.45
2022-12-11T11:26:23.052Z,2.43
2022-12-11T11:28:55.769Z,2.46
2022-12-11T11:31:34.284Z,2.45
2022-12-11T11:34:06.576Z,2.48
2022-12-11T11:36:36.196Z,2.45
2022-12-11T11:39:02.628Z,2.48
2022-12-11T11:41:43.989Z,2.48
2022-12-11T11:44:16.189Z,2.50
2022-12-11T11:47:04.268Z,2.50
2022-12-11T11:49:36.649Z,2.54
2022-12-11T11:52:15.262Z,2.55
2022-12-11T11:55:10.028Z,2.56
2022-12-11T11:57:54.168Z,2.55
2022-12-11T12:00:22.204Z,2.60
2022-12-11T12:02:51.441Z,2.62
2022-12-11T12:05:25.883Z,2.65
2022-12-11T12:08:03.649Z,2.65
2022-12-11T12:10:57.697Z,2.67
2022-12-11T12:13:54.056Z,2.69
2022-12-11T12:16:53.052Z,2.68
2022-12-11T12:19:45.291Z,2.73
2022-12-11T12:22:14.671Z,2.75
2022-12-11T12:24:57.453Z,2.77
2022-12-11T12:27:51.983Z,2.78
2022-12-11T12:30:22.908Z,2.80
2022-12-11T12:32:50.020Z,2.82
2022-12-11T12:35:24.348Z,2.83
2022-12-11T12:38:25.797Z,2.87
2022-12-11T12:41:14.164Z,2.88
2022-12-11T12:43:58.612Z,2.88
2022-12-11T12:46:27.852Z,2.90
2022-12-11T12:48:56.963Z,2.91
2022-12-11T12:51:25.217Z,2.92
2022-12-11T12:53:59.626Z,2.92
2022-12-11T12:56:29.385Z,2.91
2022-12-11T12:58:55.986Z,2.94
2022-12-11T13:01:27.500Z,2.95
2022-12-11T13:03:59.128Z,2.95
2022-12-11T13:06:32.953Z,2.93
2022-12-11T13:09:21.352Z,2.96
2022-12-11T13:11:53.600Z,2.96
2022-12-11T13:14:21.129Z,2.97
2022-12-11T13:16:50.133Z,2.98
2022-12-11T13:19:25.516Z,2.98
2022-12-11T13:22:15.363Z,2.98
2022-12-11T13:25:16.896Z,3.00
2022-12-11T13:27:43.711Z,2.98
2022-12-11T13:30:16.164Z,2.99
2022-12-11T13:32:49.565Z,3.01
2022-12-11T13:35:17.651Z,3.02
2022-12-11T13:37:46.275Z,3.02
2022-12-11T13:40:28.628Z,3.01
2022-12-11T13:43:05.315Z,3.03
2022-12-11T13:45:44.405Z,3.03
2022-12-11T13:48:28.958Z,3.03
2022-12-11T13:50:57.731Z,3.04
2022-12-11T13:53:24.385Z,3.05
2022-12-11T13:56:07.834Z,3.06
2022-12-11T13:58:37.683Z,3.06
2022-12-11T14:01:11.383Z,3.06
2022-12-11T14:03:47.403Z,3.07
2022-12-11T14:06:18.545Z,3.08
2022-12-11T14:08:49.991Z,3.05
2022-12-11T14:11:27.979Z,3.08
2022-12-11T14:13:57.748Z,3.08
2022-12-11T14:16:26.257Z,3.08
2022-12-11T14:18:54.639Z,3.09
2022-12-11T14:21:25.961Z,3.09
2022-12-11T14:23:58.058Z,3.09
2022-12-11T14:26:28.904Z,3.10
2022-12-11T14:28:55.584Z,3.09
2022-12-11T14:31:34.396Z,3.09
2022-12-11T14:34:24.360Z,3.09
2022-12-11T14:36:51.383Z,3.09
2022-12-11T14:39:31.103Z,3.10
2022-12-11T14:42:04.700Z,3.09
2022-12-11T14:44:41.700Z,3.08
2022-12-11T14:47:16.739Z,3.04
2022-12-11T14:49:47.528Z,3.06
2022-12-11T14:52:19.230Z,3.04
2022-12-11T14:54:54.741Z,3.02
2022-12-11T14:57:26.126Z,2.99
2022-12-11T14:59:54.948Z,2.98
2022-12-11T15:02:33.653Z,2.96
2022-12-11T15:05:03.404Z,2.97
2022-12-11T15:07:29.909Z,2.97
2022-12-11T15:09:56.529Z,2.94
2022-12-11T15:12:23.363Z,2.94
2022-12-11T15:14:57.408Z,2.94
2022-12-11T15:17:26.142Z,2.92
2022-12-11T15:20:02.048Z,2.91
2022-12-11T15:22:32.312Z,2.87
2022-12-11T15:25:00.221Z,2.88
2022-12-11T15:27:40.138Z,2.86
2022-12-11T15:30:15.921Z,2.83
2022-12-11T15:32:42.906Z,2.80
2022-12-11T15:35:25.361Z,2.77
2022-12-11T15:37:56.465Z,2.72
2022-12-11T15:40:23.289Z,2.74
2022-12-11T15:42:51.001Z,2.71
2022-12-11T15:45:28.476Z,2.66
2022-12-11T15:47:55.314Z,2.64
2022-12-11T15:50:28.286Z,2.62
2022-12-11T15:52:56.542Z,2.62
2022-12-11T15:55:25.700Z,2.57
2022-12-11T15:58:15.874Z,2.52
2022-12-11T16:00:42.434Z,2.48
2022-12-11T16:03:13.068Z,2.48
2022-12-11T16:05:40.436Z,2.50
2022-12-11T16:08:07.093Z,2.47
2022-12-11T16:10:33.704Z,2.44
2022-12-11T16:13:00.282Z,2.41
2022-12-11T16:15:27.144Z,2.38
2022-12-11T16:18:02.118Z,2.33
2022-12-11T16:20:29.070Z,2.34
2022-12-11T16:22:55.543Z,2.32
2022-12-11T16:25:22.088Z,2.32
2022-12-11T16:27:48.604Z,2.29
2022-12-11T16:30:15.332Z,2.26
2022-12-11T16:32:42.489Z,2.24
2022-12-11T16:35:09.355Z,2.22
2022-12-11T16:37:36.074Z,2.19
2022-12-11T16:40:02.684Z,2.18
2022-12-11T16:42:29.184Z,2.17
2022-12-11T16:45:07.252Z,2.13
2022-12-11T16:47:34.006Z,2.12
2022-12-11T16:50:00.574Z,2.09
2022-12-11T16:52:27.544Z,2.08
2022-12-11T16:54:54.587Z,2.04
2022-12-11T16:57:21.605Z,2.05
2022-12-11T16:59:48.384Z,2.03
2022-12-11T17:02:15.057Z,2.02
2022-12-11T17:04:42.052Z,2.01
2022-12-11T17:07:08.985Z,2.02
2022-12-11T17:09:36.189Z,2.02
2022-12-11T17:12:02.710Z,2.00
2022-12-11T17:14:29.306Z,2.02
2022-12-11T17:16:56.763Z,2.02
2022-12-11T17:19:23.480Z,2.02
2022-12-11T17:21:51.760Z,2.01
2022-12-11T17:24:18.475Z,2.02
2022-12-11T17:26:45.149Z,2.02
2022-12-11T17:29:12.703Z,2.01
2022-12-11T17:31:39.834Z,1.99
2022-12-11T17:34:07.098Z,1.98
2022-12-11T17:36:34.008Z,1.97
2022-12-11T17:39:00.707Z,1.98
2022-12-11T17:41:27.225Z,1.98
2022-12-11T17:43:53.756Z,1.96
2022-12-11T17:46:21.357Z,1.95
2022-12-11T17:48:48.702Z,1.93
2022-12-11T17:51:21.223Z,1.89
2022-12-11T17:53:47.944Z,1.88
2022-12-11T17:56:14.437Z,1.89
2022-12-11T17:58:41.692Z,1.87
2022-12-11T18:01:10.067Z,1.87
2022-12-11T18:03:36.912Z,1.88
2022-12-11T18:06:09.444Z,1.85
2022-12-11T18:08:36.491Z,1.86
2022-12-11T18:11:18.531Z,1.85
2022-12-11T18:13:45.963Z,1.83
2022-12-11T18:16:17.366Z,1.80
2022-12-11T18:18:44.264Z,1.80
2022-12-11T18:21:14.724Z,1.78
2022-12-11T18:23:41.371Z,1.75
2022-12-11T18:26:07.958Z,1.76
2022-12-11T18:28:34.467Z,1.72
2022-12-11T18:31:02.598Z,1.74
2022-12-11T18:33:31.002Z,1.72
2022-12-11T18:35:57.685Z,1.70
2022-12-11T18:38:24.232Z,1.71
2022-12-11T18:40:50.884Z,1.70
2022-12-11T18:43:17.435Z,1.68
2022-12-11T18:45:46.918Z,1.68
2022-12-11T18:48:14.715Z,1.68
2022-12-11T18:50:45.942Z,1.67
2022-12-11T18:53:13.057Z,1.66
2022-12-11T18:55:44.253Z,1.67
2022-12-11T18:58:15.725Z,1.64
2022-12-11T19:00:44.035Z,1.63
2022-12-11T19:03:12.177Z,1.63
2022-12-11T19:05:42.373Z,1.61
2022-12-11T19:08:10.312Z,1.58
2022-12-11T19:10:45.042Z,1.55
2022-12-11T19:13:12.216Z,1.51
2022-12-11T19:15:44.089Z,1.45
2022-12-11T19:18:11.075Z,1.38
2022-12-11T19:20:53.878Z,1.34
2022-12-11T19:23:29.581Z,1.27
2022-12-11T19:25:56.179Z,1.19
2022-12-11T19:28:22.680Z,1.12
2022-12-11T19:30:49.836Z,1.06
2022-12-11T19:33:17.121Z,1.00
2022-12-11T19:35:44.382Z,0.94
2022-12-11T19:38:12.841Z,0.89
2022-12-11T19:40:43.792Z,0.81
2022-12-11T19:43:11.344Z,0.77
2022-12-11T19:45:38.194Z,0.71
2022-12-11T19:48:05.094Z,0.62
2022-12-11T19:50:31.690Z,0.61
2022-12-11T19:52:58.225Z,0.53
2022-12-11T19:55:24.784Z,0.50
2022-12-11T19:57:51.294Z,0.44
2022-12-11T20:00:18.887Z,0.43
2022-12-11T20:02:45.429Z,0.35
2022-12-11T20:05:12.225Z,0.33
2022-12-11T20:07:38.984Z,0.27
2022-12-11T20:10:06.616Z,0.23
2022-12-11T20:12:33.117Z,0.18
2022-12-11T20:14:59.630Z,0.15
2022-12-11T20:17:26.136Z,0.12
2022-12-11T20:19:52.695Z,0.08
2022-12-11T20:22:19.448Z,0.06
2022-12-11T20:24:46.075Z,0.01
2022-12-11T20:27:12.660Z,-0.03
2022-12-11T20:29:39.212Z,-0.07
2022-12-11T20:32:05.792Z,-0.11
2022-12-11T20:34:32.464Z,-0.13
2022-12-11T20:37:00.330Z,-0.16
2022-12-11T20:39:27.100Z,-0.20
2022-12-11T20:41:53.590Z,-0.24
2022-12-11T20:44:20.331Z,-0.26
2022-12-11T20:46:46.952Z,-0.29
2022-12-11T20:49:13.444Z,-0.31
2022-12-11T20:51:40.489Z,-0.35
2022-12-11T20:54:07.300Z,-0.41
2022-12-11T20:56:33.930Z,-0.44
2022-12-11T20:59:00.922Z,-0.46
2022-12-11T21:01:31.227Z,-0.51
2022-12-11T21:03:58.796Z,-0.55
2022-12-11T21:06:31.428Z,-0.58
2022-12-11T21:09:01.271Z,-0.62
2022-12-11T21:11:27.877Z,-0.62
2022-12-11T21:13:54.470Z,-0.63
2022-12-11T21:16:21.703Z,-0.66
2022-12-11T21:18:48.805Z,-0.68
2022-12-11T21:21:16.469Z,-0.72
2022-12-11T21:23:43.157Z,-0.75
2022-12-11T21:26:09.973Z,-0.76
2022-12-11T21:28:36.661Z,-0.76
2022-12-11T21:31:09.734Z,-0.79
2022-12-11T21:33:36.429Z,-0.82
2022-12-11T21:36:05.804Z,-0.84
2022-12-11T21:38:32.760Z,-0.85
2022-12-11T21:41:08.359Z,-0.89
2022-12-11T21:43:34.917Z,-0.93
2022-12-11T21:46:02.363Z,-0.96
2022-12-11T21:48:29.377Z,-0.99
2022-12-11T21:50:56.165Z,-1.02
2022-12-11T21:53:23.007Z,-1.07
2022-12-11T21:55:49.507Z,-1.10
2022-12-11T21:58:15.980Z,-1.14
2022-12-11T22:00:42.556Z,-1.15
2022-12-11T22:03:09.108Z,-1.18
2022-12-11T22:05:35.661Z,-1.23
2022-12-11T22:08:02.346Z,-1.26
2022-12-11T22:10:29.628Z,-1.28
2022-12-11T22:12:56.144Z,-1.29
2022-12-11T22:15:22.706Z,-1.35
2022-12-11T22:17:49.360Z,-1.40
2022-12-11T22:20:15.843Z,-1.42
2022-12-11T22:22:42.560Z,-1.45
2022-12-11T22:25:09.875Z,-1.48
2022-12-11T22:27:36.616Z,-1.50
2022-12-11T22:30:04.120Z,-1.46
2022-12-11T22:32:30.761Z,-1.47
2022-12-11T22:34:57.859Z,-1.43
2022-12-11T22:37:25.033Z,-1.42
2022-12-11T22:39:51.642Z,-1.37
2022-12-11T22:42:18.225Z,-1.35
2022-12-11T22:44:44.717Z,-1.30
2022-12-11T22:47:11.447Z,-1.27
2022-12-11T22:49:37.941Z,-1.22
2022-12-11T22:52:04.860Z,-1.19
2022-12-11T22:54:31.626Z,-1.14
2022-12-11T22:56:58.109Z,-1.09
2022-12-11T22:59:24.720Z,-1.05
2022-12-11T23:01:51.387Z,-1.02
2022-12-11T23:04:17.925Z,-1.00
2022-12-11T23:06:44.433Z,-0.98
2022-12-11T23:09:11.460Z,-0.94
2022-12-11T23:11:38.925Z,-0.92
2022-12-11T23:14:07.362Z,-0.91
2022-12-11T23:16:34.264Z,-0.88
2022-12-11T23:19:00.896Z,-0.86
2022-12-11T23:21:28.109Z,-0.82
2022-12-11T23:23:55.554Z,-0.83
2022-12-11T23:26:22.387Z,-0.81
2022-12-11T23:28:49.537Z,-0.77
2022-12-11T23:31:16.563Z,-0.76
2022-12-11T23:33:43.221Z,-0.74
2022-12-11T23:36:10.039Z,-0.72
2022-12-11T23:38:37.432Z,-0.71
2022-12-11T23:41:05.568Z,-0.70
2022-12-11T23:43:33.504Z,-0.68
2022-12-11T23:46:00.116Z,-0.66
2022-12-11T23:48:26.624Z,-0.63
2022-12-11T23:50:59.483Z,-0.62
2022-12-11T23:53:27.574Z,-0.57
2022-12-11T23:55:54.652Z,-0.56
2022-12-11T23:58:21.386Z,-0.55
